Latest Weather Observations for Daly Waters

IDD60801

Issued at 8:21 pm CST Thursday 17 January 2019 (issued every 10 minutes, with the page automatically refreshed every 10 minutes)

About weather observations | Map of weather stations | Latest weather observations for NT | Other Formats
Station Details ID: 014626 Name: DALY WATERS AIRSTRIP Lat: -16.26 Lon: 133.38 Height: 209.84 m
Data from the previous 72 hours. | See also: Recent months at Daly Waters
Date/Time
CST
Temp
°C
App
Temp
°C
Dew
Point
°C
Rel
Hum
%
Delta-T
°C
Wind Press
QNH
hPa
Press
MSL
hPa
Rain since
9am
mm
Dir  Spd
km/h
Gust
km/h
Spd
kts
Gust
kts
17/08:00pm 31.5 32.6 17.0 41 9.3 N 7 11 4 6 1005.7 1004.1 0.0
17/07:30pm 31.7 33.0 17.6 43 9.1 NNE 7 13 4 7 1005.1 1003.5 0.0
17/07:00pm 32.2 31.5 16.5 39 10.0 NE 15 22 8 12 1004.6 1002.9 0.0
17/06:30pm 33.6 31.3 18.5 40 9.9 ENE 28 44 15 24 1004.2 1002.5 0.0
17/06:17pm 36.0 35.1 18.1 34 11.8 NE 20 43 11 23 1003.9 1002.2 0.0
17/06:00pm 37.9 38.7 17.3 29 13.5 ENE 9 20 5 11 1003.3 1001.7 0.0
17/05:30pm 37.5 37.6 16.4 28 13.7 NE 11 20 6 11 1003.1 1001.5 0.0
17/05:00pm 37.6 37.9 17.1 30 13.3 NE 11 20 6 11 1002.9 1001.3 0.0
17/04:30pm 37.9 37.7 16.8 29 13.7 ENE 13 24 7 13 1003.3 1001.7 0.0
17/04:00pm 37.3 38.5 17.3 30 13.0 NNE 7 15 4 8 1003.8 1002.1 0.0
17/03:30pm 37.3 38.3 17.8 31 12.8 NE 9 17 5 9 1004.3 1002.6 0.0
17/03:00pm 36.3 37.9 17.9 33 12.1 NE 6 11 3 6 1005.0 1003.4 0.0
17/02:30pm 36.0 37.9 19.0 36 11.3 NNW 7 13 4 7 1005.7 1004.1 0.0
17/02:00pm 36.5 36.9 19.9 38 11.2 NNE 17 24 9 13 1006.4 1004.8 0.0
17/01:30pm 34.9 36.8 19.7 41 10.2 NE 9 17 5 9 1007.1 1005.5 0.0
17/01:00pm 34.9 37.0 19.3 40 10.4 ENE 7 15 4 8 1007.6 1006.0 0.0
17/12:30pm 34.5 37.5 20.8 44 9.3 E 6 9 3 5 1008.1 1006.5 0.0
17/12:00pm 33.1 36.1 21.9 51 7.7 NW 9 15 5 8 1008.7 1007.0 0.0
17/11:30am 32.5 36.3 21.7 53 7.4 ENE 4 9 2 5 1009.2 1007.6 0.0
17/11:00am 31.1 34.4 21.9 58 6.3 NNW 7 13 4 7 1009.6 1008.0 0.0
17/10:30am 30.5 34.4 21.9 60 5.9 NNW 4 9 2 5 1009.8 1008.2 0.0
17/10:00am 29.4 33.3 21.9 64 5.1 WNW 4 9 2 5 1010.0 1008.4 0.0
17/09:30am 29.3 32.9 22.0 64 5.0 N 6 9 3 5 1010.2 1008.6 0.0
17/09:00am 28.3 31.5 21.6 67 4.5 NNW 7 13 4 7 1010.2 1008.6 0.0
17/08:30am 27.7 31.4 21.5 69 4.2 NNW 4 7 2 4 1010.5 1008.9 0.0
17/08:00am 26.6 30.1 21.1 72 3.7 WNW 4 6 2 3 1010.0 1008.4 0.0
17/07:30am 25.9 30.3 21.3 76 3.1 CALM 0 0 0 0 1009.8 1008.2 0.0
17/07:00am 24.3 28.6 21.2 83 2.1 CALM 0 0 0 0 1009.7 1008.1 0.0
17/06:30am 23.3 27.1 21.0 87 1.5 E 2 6 1 3 1009.5 1007.9 0.0
17/06:00am 23.0 26.3 20.7 87 1.5 SSE 4 7 2 4 1008.9 1007.2 0.0
17/05:30am 22.9 26.8 20.4 86 1.6 CALM 0 0 0 0 1008.2 1006.6 0.0
17/05:00am 23.5 27.0 20.4 83 2.0 NNW 2 6 1 3 1008.0 1006.4 0.0
17/04:30am 24.1 27.8 20.8 82 2.2 N 2 6 1 3 1007.6 1006.0 0.0
17/04:00am 23.8 27.5 20.7 83 2.0 NW 2 6 1 3 1007.6 1006.0 0.0
17/03:30am 23.8 27.8 20.5 82 2.2 CALM 0 0 0 0 1007.7 1006.1 0.0
17/03:00am 24.0 28.0 20.5 81 2.3 CALM 0 0 0 0 1007.4 1005.8 0.0
17/02:30am 24.4 27.4 20.9 81 2.3 W 6 7 3 4 1007.0 1005.4 0.0
17/02:00am 24.4 27.6 20.5 79 2.6 WNW 4 4 2 2 1007.2 1005.6 0.0
17/01:30am 24.9 28.9 20.6 77 2.8 CALM 0 2 0 1 1007.3 1005.7 0.0
17/01:00am 24.6 28.5 20.3 77 2.8 CALM 0 0 0 0 1008.1 1006.5 0.0
17/12:30am 25.9 29.9 20.5 72 3.6 CALM 0 2 0 1 1008.9 1007.2 0.0
17/12:00am 26.3 29.3 20.8 71 3.7 NNE 6 6 3 3 1009.1 1007.4 0.0
 
Date/Time
CST
Temp
°C
App
Temp
°C
Dew
Point
°C
Rel
Hum
%
Delta-T
°C
Wind Press
QNH
hPa
Press
MSL
hPa
Rain since
9am
mm
Dir  Spd
km/h
Gust
km/h
Spd
kts
Gust
kts
16/11:30pm 26.7 30.3 21.2 72 3.7 NNE 4 7 2 4 1009.6 1008.0 0.0
16/11:00pm 26.4 30.0 21.2 73 3.5 ENE 4 7 2 4 1009.5 1007.9 0.0
16/10:30pm 26.9 29.5 21.2 71 3.8 ENE 9 11 5 6 1009.5 1007.9 0.0
16/10:00pm 27.4 30.5 21.0 68 4.3 ENE 6 9 3 5 1009.6 1008.0 0.0
16/09:30pm 27.6 30.5 20.7 66 4.6 E 6 9 3 5 1009.3 1007.7 0.0
16/09:00pm 27.8 30.4 20.4 64 4.9 NNE 7 11 4 6 1008.9 1007.2 0.0
16/08:30pm 27.4 29.1 20.2 65 4.8 NE 11 15 6 8 1008.7 1007.0 0.0
16/08:00pm 27.3 28.8 18.9 60 5.4 NE 9 13 5 7 1007.9 1006.3 0.0
16/07:30pm 28.1 30.0 17.6 53 6.7 N 4 6 2 3 1007.2 1005.6 0.0
16/07:00pm 27.9 27.6 17.4 52 6.7 SW 15 24 8 13 1006.8 1005.2 0.0
16/06:37pm 29.3 26.8 16.1 44 8.3 ENE 24 50 13 27 1007.2 1005.6 0.0
16/06:30pm 29.7 24.2 16.8 45 8.2 ENE 41 61 22 33 1006.3 1004.7 0.0
16/06:08pm 34.8 33.4 18.0 37 11.0 NNE 22 61 12 33 1005.5 1003.9 0.0
16/06:00pm 36.5 36.3 18.6 35 11.9 NNE 17 24 9 13 1004.8 1003.1 0.0
16/05:30pm 36.4 36.7 18.0 33 12.1 N 13 22 7 12 1004.4 1002.7 0.0
16/05:00pm 36.7 36.4 18.3 34 12.1 NE 17 24 9 13 1004.3 1002.6 0.0
16/04:30pm 37.1 37.9 18.1 32 12.6 NNE 11 22 6 12 1004.6 1002.9 0.0
16/04:00pm 37.3 37.0 18.3 32 12.6 NNE 17 24 9 13 1004.7 1003.0 0.0
16/03:30pm 37.2 37.5 18.7 33 12.3 N 15 24 8 13 1005.2 1003.6 0.0
16/03:00pm 36.6 37.0 18.2 34 12.2 NE 13 24 7 13 1006.0 1004.4 0.0
16/02:30pm 36.1 36.3 17.7 33 12.1 NE 13 22 7 12 1006.4 1004.8 0.0
16/02:00pm 36.0 37.0 18.6 36 11.5 NE 11 19 6 10 1006.8 1005.2 0.0
16/01:30pm 35.8 37.1 18.4 35 11.5 N 9 24 5 13 1007.4 1005.8 0.0
16/01:00pm 36.3 38.1 18.8 35 11.6 E 7 15 4 8 1007.8 1006.2 0.0
16/12:30pm 34.9 36.0 18.0 36 11.1 NE 9 22 5 12 1008.5 1006.9 0.0
16/12:00pm 34.3 35.6 17.5 36 10.9 ENE 7 17 4 9 1009.2 1007.6 0.0
16/11:30am 33.9 36.4 19.9 43 9.4 E 6 15 3 8 1009.7 1008.1 0.0
16/11:00am 32.7 34.9 19.6 46 8.7 NNE 7 13 4 7 1010.1 1008.5 0.0
16/10:30am 32.0 34.9 20.6 51 7.7 NNW 6 13 3 7 1010.3 1008.7 0.0
16/10:00am 31.1 33.6 21.0 55 6.8 NNW 9 17 5 9 1010.4 1008.8 0.0
16/09:30am 30.8 33.7 21.0 56 6.6 N 7 19 4 10 1010.6 1009.0 0.0
16/09:00am 29.7 32.5 20.5 57 6.1 N 6 9 3 5 1010.7 1009.1 0.0
16/08:30am 28.6 32.1 21.1 64 5.0 W 4 7 2 4 1010.6 1009.0 0.0
16/08:00am 27.5 31.7 21.8 71 3.8 NW 2 6 1 3 1010.4 1008.8 0.0
16/07:30am 26.5 30.7 21.7 75 3.2 WNW 2 4 1 2 1010.0 1008.4 0.0
16/07:00am 24.3 28.9 21.8 86 1.7 CALM 0 0 0 0 1009.7 1008.1 0.0
16/06:30am 23.8 28.1 21.1 85 1.8 CALM 0 0 0 0 1009.1 1007.4 0.0
16/06:00am 24.0 28.3 21.1 84 1.9 CALM 0 0 0 0 1009.0 1007.3 0.0
16/05:30am 24.6 29.0 21.3 82 2.2 CALM 0 0 0 0 1008.5 1006.9 0.0
16/05:00am 25.2 29.0 21.7 81 2.3 NNW 4 6 2 3 1008.1 1006.5 0.0
16/04:30am 25.3 29.7 21.4 79 2.6 CALM 0 0 0 0 1008.0 1006.4 0.0
16/04:00am 25.6 30.0 21.3 77 2.9 CALM 0 2 0 1 1008.5 1006.9 0.0
16/03:30am 26.4 30.2 21.6 75 3.2 N 4 7 2 4 1008.1 1006.5 0.0
16/03:00am 26.7 29.8 21.5 73 3.5 N 7 13 4 7 1008.0 1006.4 0.0
16/02:30am 27.0 29.4 21.5 72 3.7 N 11 17 6 9 1007.8 1006.2 0.0
16/02:00am 27.2 30.4 21.2 69 4.0 N 6 9 3 5 1008.1 1006.5 0.0
16/01:30am 27.1 30.5 20.9 69 4.1 NNE 4 4 2 2 1008.4 1006.8 0.0
16/01:00am 27.6 30.9 20.7 66 4.6 N 4 4 2 2 1008.2 1006.6 0.0
16/12:30am 28.2 31.8 20.5 63 5.1 N 2 4 1 2 1008.0 1006.4 0.0
16/12:00am 28.3 31.8 20.3 62 5.3 NW 2 7 1 4 1008.3 1006.7 0.0
 
Date/Time
CST
Temp
°C
App
Temp
°C
Dew
Point
°C
Rel
Hum
%
Delta-T
°C
Wind Press
QNH
hPa
Press
MSL
hPa
Rain since
9am
mm
Dir  Spd
km/h
Gust
km/h
Spd
kts
Gust
kts
15/11:30pm 28.9 31.8 19.8 58 6.0 N 4 4 2 2 1008.4 1006.8 0.0
15/11:00pm 29.6 32.4 19.6 55 6.6 N 4 4 2 2 1008.8 1007.1 0.0
15/10:30pm 30.1 32.3 19.5 53 7.0 NNE 7 11 4 6 1008.9 1007.2 0.0
15/10:00pm 30.0 31.7 19.4 53 7.0 NE 9 13 5 7 1008.8 1007.1 0.0
15/09:30pm 30.1 32.1 19.2 52 7.2 NNE 7 9 4 5 1008.4 1006.8 0.0
15/09:00pm 30.1 32.7 19.2 52 7.2 NE 4 6 2 3 1008.4 1006.8 0.0
15/08:30pm 30.5 32.6 18.9 50 7.6 ENE 6 7 3 4 1008.0 1006.4 0.0
15/08:00pm 31.0 32.7 18.4 47 8.2 NNE 7 9 4 5 1007.7 1006.1 0.0
15/07:30pm 31.4 32.9 18.0 44 8.7 NE 7 9 4 5 1007.3 1005.7 0.0
15/07:00pm 32.3 33.5 17.4 41 9.6 NE 7 11 4 6 1007.1 1005.5 0.0
15/06:30pm 32.9 33.2 17.1 39 10.2 NE 11 19 6 10 1006.8 1005.2 0.0
15/06:00pm 32.8 33.8 17.8 40 9.7 NE 9 13 5 7 1006.4 1004.8 0.0
15/05:30pm 32.7 34.1 19.6 46 8.7 NNE 11 15 6 8 1006.1 1004.5 0.0
15/05:00pm 32.9 34.8 19.7 45 8.8 NNE 9 13 5 7 1006.1 1004.5 0.0
15/04:30pm 32.5 34.2 20.1 48 8.3 N 11 17 6 9 1006.4 1004.8 0.0
15/04:00pm 33.2 34.9 21.0 48 8.3 NNE 13 17 7 9 1006.7 1005.1 0.0
15/03:30pm 32.3 33.4 20.5 49 7.9 NNE 15 20 8 11 1007.2 1005.6 0.0
15/03:00pm 32.4 33.8 20.3 48 8.1 NNE 13 20 7 11 1007.4 1005.8 0.0
15/02:30pm 32.4 33.2 20.6 49 7.9 N 17 26 9 14 1007.7 1006.1 0.0
15/02:00pm 33.9 34.9 21.0 47 8.8 N 17 26 9 14 1007.7 1006.1 0.0
15/01:30pm 31.8 33.5 21.0 52 7.3 N 13 19 7 10 1008.2 1006.6 0.0
15/01:00pm 31.8 34.1 21.3 53 7.1 N 11 19 6 10 1008.5 1006.9 0.0
15/12:30pm 32.0 34.0 19.9 48 8.1 E 9 17 5 9 1008.9 1007.2 0.0
15/12:00pm 31.8 33.6 20.4 51 7.6 ENE 11 20 6 11 1009.3 1007.7 0.0
15/11:30am 30.8 32.9 21.0 56 6.6 NNE 11 20 6 11 1009.7 1008.1 0.0
15/11:00am 31.3 33.8 21.8 57 6.5 NE 11 20 6 11 1009.9 1008.3 0.0
15/10:30am 30.7 32.7 21.5 58 6.2 NE 13 20 7 11 1010.0 1008.4 0.0
15/10:00am 30.2 33.9 22.6 63 5.2 ENE 7 13 4 7 1010.3 1008.7 0.0
15/09:30am 28.7 32.3 22.0 67 4.6 ENE 6 11 3 6 1010.5 1008.9 0.0
15/09:00am 27.9 32.1 21.7 69 4.2 ENE 2 4 1 2 1010.6 1009.0 0.0
15/08:30am 27.3 31.2 21.8 72 3.7 ENE 4 6 2 3 1010.6 1009.0 0.0
15/08:00am 26.8 30.8 22.0 75 3.2 ENE 4 6 2 3 1010.5 1008.9 0.0
15/07:30am 26.2 31.2 22.5 80 2.5 CALM 0 0 0 0 1010.3 1008.7 0.0
15/07:00am 25.8 30.9 22.7 83 2.1 CALM 0 0 0 0 1010.1 1008.5 0.0
15/06:30am 25.5 30.3 22.2 82 2.2 CALM 0 0 0 0 1009.6 1008.0 0.0
15/06:00am 25.7 29.8 22.2 81 2.4 ENE 4 4 2 2 1009.2 1007.6 0.0
15/05:30am 25.9 29.8 21.8 78 2.8 ENE 4 6 2 3 1008.9 1007.2 0.0
15/05:00am 26.0 30.3 21.9 78 2.8 NE 2 4 1 2 1008.3 1006.7 0.0
15/04:30am 26.2 30.7 21.6 76 3.1 CALM 0 0 0 0 1008.0 1006.4 0.0
15/04:00am 26.0 30.4 21.4 76 3.1 CALM 0 0 0 0 1008.1 1006.5 0.0
15/03:30am 26.2 30.6 21.4 75 3.2 CALM 0 0 0 0 1008.3 1006.7 0.0
15/03:00am 26.3 29.8 21.1 73 3.5 ENE 4 4 2 2 1008.3 1006.7 0.0
15/02:30am 26.6 30.0 20.9 71 3.8 NE 4 4 2 2 1008.4 1006.8 0.0
15/02:00am 26.8 30.3 20.4 68 4.2 NNW 2 4 1 2 1008.7 1007.0 0.0
15/01:30am 26.9 30.1 20.5 68 4.2 N 4 7 2 4 1008.9 1007.2 0.0
15/01:00am 27.2 30.2 20.8 68 4.3 N 6 7 3 4 1009.3 1007.7 0.0
15/12:30am 27.3 29.6 20.6 67 4.5 N 9 13 5 7 1009.4 1007.8 0.0
15/12:00am 27.4 29.6 20.5 66 4.6 N 9 13 5 7 1009.7 1008.1 0.0
 
Date/Time
CST
Temp
°C
App
Temp
°C
Dew
Point
°C
Rel
Hum
%
Delta-T
°C
Wind Press
QNH
hPa
Press
MSL
hPa
Rain since
9am
mm
Dir  Spd
km/h
Gust
km/h
Spd
kts
Gust
kts
14/11:30pm 27.6 29.7 20.2 64 4.9 NNE 9 13 5 7 1009.9 1008.3 0.0
14/11:00pm 27.7 30.1 20.0 63 5.1 NNE 7 11 4 6 1010.1 1008.5 0.0
14/10:30pm 27.7 30.1 20.0 63 5.1 N 7 11 4 6 1009.9 1008.3 0.0
14/10:00pm 27.9 29.4 19.7 61 5.4 NNE 11 15 6 8 1009.2 1007.6 0.0
14/09:30pm 28.0 29.9 19.8 61 5.4 N 9 13 5 7 1008.9 1007.2 0.0
14/09:00pm 28.3 30.8 19.8 60 5.6 NNE 6 9 3 5 1008.8 1007.1 0.0
14/08:30pm 28.6 30.8 19.5 58 6.0 NNE 7 9 4 5 1008.5 1006.9 0.0

Other Formats:

Comma delimited format used in spreadsheet applications
http://www.bom.gov.au/fwo/IDD60801/IDD60801.94234.axf

JavaScript Object Notation format (JSON) in row-major order
http://www.bom.gov.au/fwo/IDD60801/IDD60801.94234.json